createdAt,value
2022-11-06T00:02:02.356Z,5.41
2022-11-06T00:06:45.862Z,5.36
2022-11-06T00:11:28.822Z,5.28
2022-11-06T00:16:11.780Z,5.27
2022-11-06T00:20:54.719Z,5.25
2022-11-06T00:25:37.814Z,5.25
2022-11-06T00:30:21.025Z,5.28
2022-11-06T00:35:03.959Z,5.33
2022-11-06T00:39:46.990Z,5.34
2022-11-06T00:44:32.678Z,5.32
2022-11-06T00:49:15.750Z,5.33
2022-11-06T00:53:58.690Z,5.34
2022-11-06T00:58:41.632Z,5.3
2022-11-06T01:03:24.791Z,5.25
2022-11-06T01:08:07.836Z,5.23
2022-11-06T01:12:51.183Z,5.2
2022-11-06T01:17:34.116Z,5.18
2022-11-06T01:22:17.155Z,5.11
2022-11-06T01:32:13.122Z,5.03
2022-11-06T01:36:56.041Z,5.02
2022-11-06T01:41:38.977Z,5.01
2022-11-06T01:46:22.009Z,4.96
2022-11-06T01:51:05.037Z,4.91
2022-11-06T01:55:47.955Z,4.83
2022-11-06T02:00:30.894Z,4.81
2022-11-06T02:05:14.008Z,4.79
2022-11-06T02:09:56.952Z,4.75
2022-11-06T02:14:40.016Z,4.74
2022-11-06T02:19:22.957Z,4.68
2022-11-06T02:24:05.889Z,4.67
2022-11-06T02:28:48.948Z,4.55
2022-11-06T02:33:31.909Z,4.34
2022-11-06T02:38:15.225Z,4.14
2022-11-06T02:42:58.782Z,4.03
2022-11-06T02:47:41.695Z,3.94
2022-11-06T02:52:24.625Z,3.87
2022-11-06T02:57:07.909Z,3.88
2022-11-06T03:01:51.025Z,3.9
2022-11-06T03:06:34.461Z,3.93
2022-11-06T03:11:17.404Z,3.93
2022-11-06T03:16:00.489Z,3.92
2022-11-06T03:20:43.545Z,3.93
2022-11-06T03:25:26.477Z,3.84
2022-11-06T03:30:12.695Z,3.82
2022-11-06T03:34:59.078Z,3.82
2022-11-06T03:39:41.971Z,3.84
2022-11-06T03:44:24.937Z,3.76
2022-11-06T03:49:07.851Z,3.74
2022-11-06T03:53:50.757Z,3.75
2022-11-06T03:58:33.919Z,3.76
2022-11-06T04:03:17.122Z,3.7
2022-11-06T04:08:00.029Z,3.73
2022-11-06T04:12:42.953Z,3.74
2022-11-06T04:17:25.842Z,3.73
2022-11-06T04:22:08.723Z,3.71
2022-11-06T04:26:51.605Z,3.76
2022-11-06T04:31:34.596Z,3.8
2022-11-06T04:36:17.490Z,3.67
2022-11-06T04:41:00.447Z,3.55
2022-11-06T04:45:43.424Z,3.43
2022-11-06T04:50:26.363Z,3.36
2022-11-06T04:55:09.306Z,3.31
2022-11-06T04:59:52.353Z,3.32
2022-11-06T05:04:35.332Z,3.33
2022-11-06T05:09:18.277Z,3.29
2022-11-06T05:14:01.250Z,3.24
2022-11-06T05:18:44.137Z,3.16
2022-11-06T05:23:27.033Z,3.14
2022-11-06T05:28:10.118Z,3.04
2022-11-06T05:32:54.113Z,3.06
2022-11-06T05:37:37.048Z,3.17
2022-11-06T05:42:19.964Z,3.14
2022-11-06T05:47:02.922Z,3.08
2022-11-06T05:51:46.495Z,3.15
2022-11-06T05:56:29.408Z,3.17
2022-11-06T06:01:12.320Z,3.24
2022-11-06T06:05:55.328Z,3.3
2022-11-06T06:10:38.233Z,3.46
2022-11-06T06:15:23.105Z,3.56
2022-11-06T06:20:06.034Z,3.6
2022-11-06T06:24:49.063Z,3.65
2022-11-06T06:29:32.253Z,3.68
2022-11-06T06:34:15.175Z,3.79
2022-11-06T06:38:58.126Z,3.89
2022-11-06T06:43:41.081Z,3.96
2022-11-06T06:48:23.987Z,4.01
2022-11-06T06:53:06.928Z,4.05
2022-11-06T06:57:49.865Z,4.13
2022-11-06T07:02:32.888Z,4.15
2022-11-06T07:07:16.158Z,4.18
2022-11-06T07:11:59.080Z,4.27
2022-11-06T07:16:42.146Z,4.38
2022-11-06T07:21:25.120Z,4.45
2022-11-06T07:26:08.055Z,4.48
2022-11-06T07:30:50.956Z,4.68
2022-11-06T07:35:33.904Z,4.97
2022-11-06T07:40:16.898Z,5.43
2022-11-06T07:44:59.952Z,5.85
2022-11-06T07:49:46.824Z,6.29
2022-11-06T07:54:33.491Z,6.98
2022-11-06T07:59:16.456Z,8.31
2022-11-06T08:03:59.379Z,9.58
2022-11-06T08:08:42.322Z,10.6
2022-11-06T08:13:25.277Z,11.44
2022-11-06T08:18:08.268Z,11.94
2022-11-06T08:22:51.501Z,12.13
2022-11-06T08:27:34.442Z,12.14
2022-11-06T08:32:17.488Z,12.52
2022-11-06T08:37:00.431Z,13.32
2022-11-06T08:41:43.400Z,13.82
2022-11-06T08:46:26.360Z,14.02
2022-11-06T08:51:09.319Z,14.02
2022-11-06T08:55:52.317Z,15.07
2022-11-06T09:00:35.260Z,15.38
2022-11-06T09:05:18.247Z,15.36
2022-11-06T09:10:01.375Z,16.38
2022-11-06T09:14:44.433Z,16.1
2022-11-06T09:19:27.548Z,16.24
2022-11-06T09:24:10.742Z,16.24
2022-11-06T09:28:53.838Z,15.97
2022-11-06T09:33:36.978Z,15.84
2022-11-06T09:38:20.078Z,15.93
2022-11-06T09:43:03.256Z,16.34
2022-11-06T09:47:46.288Z,16.41
2022-11-06T09:52:29.450Z,17.12
2022-11-06T09:57:13.334Z,17.26
2022-11-06T10:01:56.534Z,16.06
2022-11-06T10:06:40.189Z,16.84
2022-11-06T10:11:23.245Z,16.79
2022-11-06T10:16:06.302Z,17.26
2022-11-06T10:20:49.353Z,17.33
2022-11-06T10:25:32.658Z,17.01
2022-11-06T10:30:15.760Z,16.99
2022-11-06T10:34:58.869Z,17.22
2022-11-06T10:39:42.005Z,17.38
2022-11-06T10:44:25.163Z,17.32
2022-11-06T10:49:08.264Z,16.76
2022-11-06T10:53:51.375Z,17.53
2022-11-06T10:58:34.962Z,17
2022-11-06T11:03:19.086Z,17.12
2022-11-06T11:08:02.147Z,17.69
2022-11-06T11:12:45.190Z,17.79
2022-11-06T11:17:28.293Z,17.42
2022-11-06T11:22:11.395Z,17.19
2022-11-06T11:26:54.320Z,17.39
2022-11-06T11:31:37.436Z,17.41
2022-11-06T11:36:20.414Z,17.53
2022-11-06T11:41:03.564Z,18.02
2022-11-06T11:45:47.542Z,18.29
2022-11-06T11:50:30.760Z,18.02
2022-11-06T11:55:13.942Z,15.13
2022-11-06T11:59:56.938Z,14.14
2022-11-06T12:04:40.150Z,13.33
2022-11-06T12:09:25.543Z,13.07
2022-11-06T12:14:09.166Z,13.15
2022-11-06T12:18:56.088Z,12.97
2022-11-06T12:23:41.383Z,12.72
2022-11-06T12:28:24.489Z,12.45
2022-11-06T12:33:07.704Z,12.4
2022-11-06T12:37:50.676Z,12.38
2022-11-06T12:42:37.051Z,12.27
2022-11-06T12:47:24.007Z,12.23
2022-11-06T12:52:09.548Z,12.33
2022-11-06T12:56:52.501Z,12.24
2022-11-06T13:01:35.748Z,12.21
2022-11-06T13:06:23.389Z,12.19
2022-11-06T13:11:06.622Z,12.14
2022-11-06T13:15:49.590Z,12.07
2022-11-06T13:20:32.615Z,11.98
2022-11-06T13:25:15.555Z,12.02
2022-11-06T13:29:58.464Z,12.04
2022-11-06T13:34:41.432Z,12.02
2022-11-06T13:39:24.372Z,11.9
2022-11-06T13:44:07.311Z,11.83
2022-11-06T13:48:50.508Z,11.73
2022-11-06T13:53:33.690Z,11.63
2022-11-06T13:58:17.029Z,11.64
2022-11-06T14:03:00.400Z,11.6
2022-11-06T14:07:43.544Z,11.6
2022-11-06T14:12:26.550Z,11.55
2022-11-06T14:17:09.862Z,11.48
2022-11-06T14:21:53.004Z,11.47
2022-11-06T14:26:35.975Z,11.42
2022-11-06T14:31:23.891Z,11.35
2022-11-06T14:36:12.459Z,11.32
2022-11-06T14:40:55.833Z,11.26
2022-11-06T14:45:38.932Z,11.21
2022-11-06T14:50:22.179Z,11.12
2022-11-06T14:55:05.958Z,11.04
2022-11-06T14:59:49.106Z,10.96
2022-11-06T15:04:32.235Z,10.89
2022-11-06T15:09:15.275Z,10.79
2022-11-06T15:13:59.680Z,10.68
2022-11-06T15:18:50.897Z,10.61
2022-11-06T15:23:34.488Z,10.49
2022-11-06T15:28:18.743Z,10.4
2022-11-06T15:33:01.898Z,10.32
2022-11-06T15:37:44.999Z,10.27
2022-11-06T15:42:27.993Z,10.18
2022-11-06T15:47:13.956Z,10.14
2022-11-06T15:51:57.038Z,10.03
2022-11-06T15:56:40.041Z,9.93
2022-11-06T16:01:23.120Z,9.81
2022-11-06T16:06:06.396Z,9.7
2022-11-06T16:10:49.328Z,9.58
2022-11-06T16:15:32.285Z,9.5
2022-11-06T16:20:15.248Z,9.4
2022-11-06T16:24:58.191Z,9.26
2022-11-06T16:29:41.157Z,9.12
2022-11-06T16:34:24.160Z,9.06
2022-11-06T16:39:07.132Z,8.97
2022-11-06T16:43:50.046Z,8.9
2022-11-06T16:48:32.980Z,8.77
2022-11-06T16:53:16.204Z,8.68
2022-11-06T16:57:59.389Z,8.6
2022-11-06T17:02:42.421Z,8.52
2022-11-06T17:07:26.000Z,8.46
2022-11-06T17:12:08.976Z,8.42
2022-11-06T17:16:51.984Z,8.36
2022-11-06T17:21:34.994Z,8.32
2022-11-06T17:26:17.975Z,8.27
2022-11-06T17:31:00.876Z,8.21
2022-11-06T17:35:43.828Z,8.14
2022-11-06T17:40:26.776Z,8.03
2022-11-06T17:45:09.745Z,7.94
2022-11-06T17:49:52.695Z,7.87
2022-11-06T17:54:35.606Z,7.77
2022-11-06T17:59:18.585Z,7.75
2022-11-06T18:04:01.559Z,7.66
2022-11-06T18:08:44.566Z,7.6
2022-11-06T18:13:27.551Z,7.54
2022-11-06T18:18:10.792Z,7.44
2022-11-06T18:22:54.981Z,7.35
2022-11-06T18:27:37.955Z,7.26
2022-11-06T18:32:20.952Z,7.13
2022-11-06T18:37:03.907Z,7.06
2022-11-06T18:41:46.901Z,7.01
2022-11-06T18:46:29.875Z,6.96
2022-11-06T18:51:12.810Z,6.88
2022-11-06T18:56:13.399Z,6.83
2022-11-06T19:01:01.620Z,6.76
2022-11-06T19:05:45.286Z,6.72
2022-11-06T19:10:28.249Z,6.66
2022-11-06T19:15:11.211Z,6.57
2022-11-06T19:19:54.169Z,6.53
2022-11-06T19:24:37.112Z,6.47
2022-11-06T19:29:20.080Z,6.39
2022-11-06T19:34:03.164Z,6.4
2022-11-06T19:38:46.204Z,6.31
2022-11-06T19:43:29.167Z,6.25
2022-11-06T19:48:12.159Z,6.25
2022-11-06T19:52:55.168Z,6.25
2022-11-06T19:57:38.126Z,6.25
2022-11-06T20:02:21.270Z,6.31
2022-11-06T20:07:05.013Z,6.38
2022-11-06T20:11:48.212Z,6.45
2022-11-06T20:16:31.190Z,6.48
2022-11-06T20:21:14.152Z,6.46
2022-11-06T20:25:57.158Z,6.39
2022-11-06T20:30:40.207Z,6.28
2022-11-06T20:35:23.094Z,6.25
2022-11-06T20:40:06.070Z,6.18
2022-11-06T20:44:49.091Z,6.14
2022-11-06T20:49:32.084Z,6.09
2022-11-06T20:54:15.121Z,6.05
2022-11-06T20:58:58.112Z,6.03
2022-11-06T21:03:44.119Z,5.98
2022-11-06T21:08:29.975Z,5.98
2022-11-06T21:13:13.180Z,5.98
2022-11-06T21:17:57.425Z,5.97
2022-11-06T21:22:40.343Z,5.96
2022-11-06T21:27:23.321Z,5.92
2022-11-06T21:32:06.338Z,5.84
2022-11-06T21:36:49.288Z,5.81
2022-11-06T21:41:32.267Z,5.74
2022-11-06T21:46:15.239Z,5.72
2022-11-06T21:50:58.191Z,5.71
2022-11-06T21:55:41.251Z,5.72
2022-11-06T22:00:24.315Z,5.75
2022-11-06T22:05:07.327Z,5.73
2022-11-06T22:09:50.262Z,5.76
2022-11-06T22:14:33.410Z,5.76
2022-11-06T22:19:16.386Z,5.77
2022-11-06T22:23:59.535Z,5.8
2022-11-06T22:28:42.469Z,5.75
2022-11-06T22:33:25.593Z,5.72
2022-11-06T22:38:08.587Z,5.66
2022-11-06T22:42:51.512Z,5.6
2022-11-06T22:47:35.420Z,5.51
2022-11-06T22:52:18.333Z,5.45
2022-11-06T22:57:01.249Z,5.4
2022-11-06T23:01:44.277Z,5.35
2022-11-06T23:06:27.458Z,5.33
2022-11-06T23:11:10.416Z,5.32
2022-11-06T23:15:53.305Z,5.36
2022-11-06T23:20:36.304Z,5.34
2022-11-06T23:25:19.246Z,5.28
2022-11-06T23:30:02.165Z,5.25
2022-11-06T23:34:45.244Z,5.2
2022-11-06T23:39:28.274Z,5.17
2022-11-06T23:44:11.222Z,5.15
2022-11-06T23:48:54.161Z,5.1
2022-11-06T23:53:37.069Z,5.15
2022-11-06T23:58:20.039Z,5.22
